Latest Weather Observations for Brisbane Airport

IDQ60801

Issued at 10:32 am EST Friday 28 July 2017 (issued every 30 minutes, with the page automatically refreshed every 10 minutes)

About weather observations | Map of weather stations | Latest weather observations for QLD | Other Formats
Station Details ID: 040842 Name: BRISBANE AERO Lat: -27.39 Lon: 153.13 Height: 4.51 m
Data from the previous 72 hours. | See also: Recent months at Brisbane Airport
Date/Time
EST
Temp
°C
App
Temp
°C
Dew
Point
°C
Rel
Hum
%
Delta-T
°C
Wind Press
QNH
hPa
Press
MSL
hPa
Rain since
9am
mm
Dir  Spd
km/h
Gust
km/h
Spd
kts
Gust
kts
28/10:00am 18.4 16.2 9.4 55 4.7 SSW 11 13 6 7 1023.6 1023.5 0.0
28/09:30am 17.2 14.6 9.5 60 4.0 SW 13 15 7 8 1023.8 1023.7 0.0
28/09:00am 15.9 13.7 9.5 66 3.3 SW 11 15 6 8 1023.8 1023.7 0.4
28/08:30am 13.7 10.8 9.6 76 2.1 SSW 15 19 8 10 1024.0 1023.9 -
28/08:00am 12.6 10.5 9.6 82 1.5 SSW 11 13 6 7 1024.1 1024.0 -
28/07:30am 10.9 8.2 9.1 89 0.9 SSW 13 17 7 9 1024.0 1023.9 -
28/07:00am 9.5 6.5 7.8 89 0.8 SSW 13 15 7 8 1024.1 1024.0 -
28/06:30am 9.5 7.3 8.0 90 0.7 SSW 9 11 5 6 1023.6 1023.5 -
28/06:00am 9.3 6.8 8.0 92 0.6 SW 11 13 6 7 1023.4 1023.3 -
28/05:30am 9.3 7.1 7.8 90 0.7 W 9 9 5 5 1023.1 1023.0 -
28/05:00am 9.4 7.2 7.7 89 0.8 SW 9 11 5 6 1022.9 1022.8 -
28/04:30am 10.5 8.4 8.2 86 1.1 SSW 9 11 5 6 1022.9 1022.8 -
28/04:00am 10.8 7.9 8.1 83 1.3 SSW 13 15 7 8 1023.4 1023.3 -
28/03:30am 11.6 8.4 8.5 81 1.5 SSW 15 19 8 10 1023.6 1023.5 -
28/03:00am 11.1 8.3 8.4 83 1.3 SSW 13 15 7 8 1023.6 1023.5 0.0
28/02:30am 10.7 8.3 8.7 87 1.0 SSW 11 13 6 7 1023.6 1023.5 -
28/02:00am 10.9 9.0 9.1 89 0.9 SSW 9 11 5 6 1023.6 1023.5 -
28/01:30am 10.8 9.3 9.0 89 0.9 SW 7 9 4 5 1023.9 1023.8 -
28/01:00am 10.5 8.6 8.9 90 0.8 SW 9 11 5 6 1023.9 1023.8 -
28/12:30am 11.4 9.5 9.0 85 1.2 SW 9 11 5 6 1024.3 1024.2 -
28/12:00am 11.5 9.6 9.1 85 1.2 SSW 9 11 5 6 1024.3 1024.2 -
 
Date/Time
EST
Temp
°C
App
Temp
°C
Dew
Point
°C
Rel
Hum
%
Delta-T
°C
Wind Press
QNH
hPa
Press
MSL
hPa
Rain since
9am
mm
Dir  Spd
km/h
Gust
km/h
Spd
kts
Gust
kts
27/11:30pm 11.4 9.0 8.8 84 1.3 SSW 11 11 6 6 1024.4 1024.3 -
27/11:00pm 11.5 9.1 8.7 83 1.4 SSW 11 13 6 7 1024.3 1024.2 -
27/10:30pm 11.4 9.4 8.5 82 1.4 WSW 9 11 5 6 1024.3 1024.2 -
27/10:00pm 13.0 11.8 9.4 79 1.8 WSW 6 7 3 4 1024.1 1024.0 -
27/09:30pm 13.2 11.4 9.4 78 1.9 WSW 9 13 5 7 1024.2 1024.1 -
27/09:00pm 13.0 11.5 9.2 78 1.9 SE 7 9 4 5 1024.1 1024.0 0.0
27/08:30pm 15.9 14.6 11.2 73 2.5 ESE 9 11 5 6 1024.0 1023.9 -
27/08:00pm 15.9 14.7 11.6 75 2.3 ESE 9 13 5 7 1024.0 1023.9 -
27/07:30pm 16.4 15.4 12.4 77 2.2 ESE 9 11 5 6 1023.9 1023.8 -
27/07:00pm 16.6 15.3 12.6 77 2.2 ESE 11 15 6 8 1023.5 1023.4 -
27/06:30pm 16.9 15.7 11.7 71 2.8 ESE 9 15 5 8 1023.3 1023.2 -
27/06:00pm 17.6 16.2 10.9 65 3.6 ESE 9 11 5 6 1023.1 1023.0 -
27/05:30pm 18.0 16.2 10.7 62 3.9 ESE 11 17 6 9 1022.9 1022.8 -
27/05:00pm 18.7 16.2 10.9 60 4.2 ESE 15 20 8 11 1022.5 1022.4 -
27/04:30pm 19.2 16.2 10.7 58 4.6 ESE 17 26 9 14 1022.4 1022.3 -
27/04:00pm 19.7 16.3 10.4 55 5.0 ESE 19 30 10 16 1022.1 1022.0 -
27/03:30pm 20.2 17.0 10.1 52 5.4 ESE 17 30 9 16 1022.1 1022.0 -
27/03:00pm 20.6 17.1 10.2 51 5.6 SE 19 30 10 16 1022.0 1021.9 0.0
27/02:30pm 20.8 17.1 10.2 50 5.7 ESE 20 30 11 16 1021.9 1021.8 0.0
27/02:00pm 21.2 17.8 10.5 50 5.8 ESE 19 28 10 15 1021.9 1021.8 -
27/01:30pm 21.6 18.0 9.9 47 6.3 ESE 19 30 10 16 1021.9 1021.8 -
27/01:00pm 21.4 17.6 9.1 45 6.5 ESE 19 28 10 15 1022.2 1022.1 -
27/12:30pm 21.7 18.2 8.6 43 6.9 ESE 17 28 9 15 1022.5 1022.4 0.0
27/12:00pm 21.8 18.7 8.7 43 6.9 ESE 15 20 8 11 1022.9 1022.8 -
27/11:32am - - - - - SE 15 - 8 - 1023.5 - 0.0
27/11:30am - - - - - SE 15 - 8 - 1023.5 - 0.0
27/11:00am 21.4 17.2 3.6 31 8.5 S 15 24 8 13 1023.8 1023.7 0.0
27/10:30am 20.8 16.4 2.9 30 8.4 SSW 15 22 8 12 1024.1 1024.0 0.0
27/10:00am 19.6 15.6 3.1 33 7.7 S 13 19 7 10 1024.1 1024.0 0.0
27/09:30am 18.2 14.1 4.2 39 6.6 SW 15 19 8 10 1023.8 1023.7 0.0
27/09:00am 16.7 13.1 4.8 45 5.6 SSW 13 17 7 9 1023.6 1023.5 0.0
27/08:30am 14.6 11.1 5.5 54 4.3 SSW 13 17 7 9 1023.7 1023.6 0.0
27/08:00am 13.0 10.3 5.7 61 3.4 S 9 13 5 7 1023.3 1023.2 0.0
27/07:30am 12.0 8.4 5.2 63 3.1 S 13 19 7 10 1023.0 1022.9 0.0
27/07:00am 10.2 6.6 5.1 70 2.3 SSW 13 17 7 9 1022.2 1022.1 0.0
27/06:30am 9.9 5.2 5.0 71 2.2 SSW 19 24 10 13 1021.9 1021.8 0.0
27/06:00am 9.0 5.0 4.7 74 1.9 SSW 15 19 8 10 1021.7 1021.6 0.0
27/05:30am 10.0 6.5 5.4 73 2.1 SSW 13 17 7 9 1021.3 1021.2 0.0
27/05:00am 9.3 6.3 6.0 80 1.5 SSW 11 13 6 7 1020.9 1020.8 0.0
27/04:30am 8.6 5.6 6.2 85 1.1 SW 11 13 6 7 1020.8 1020.7 0.0
27/04:00am 8.1 4.7 5.9 86 1.0 SW 13 15 7 8 1020.7 1020.6 0.0
27/03:30am 9.9 7.7 6.2 78 1.7 SW 7 11 4 6 1020.6 1020.5 0.0
27/03:00am 9.6 8.3 7.5 87 1.0 SSW 4 11 2 6 1020.8 1020.7 0.0
27/02:30am 9.8 8.6 8.1 89 0.8 SSW 4 9 2 5 1020.9 1020.8 0.0
27/02:00am 9.2 6.6 7.7 90 0.7 SW 11 13 6 7 1020.7 1020.6 0.0
27/01:30am 10.5 8.4 8.4 87 1.0 SSW 9 11 5 6 1020.6 1020.5 0.0
27/01:00am 11.2 11.0 9.0 86 1.1 CALM 0 0 0 0 1020.7 1020.6 0.0
27/12:30am 11.8 10.2 8.1 78 1.8 E 6 11 3 6 1020.8 1020.7 0.0
27/12:00am 10.8 8.7 8.3 84 1.2 WSW 9 11 5 6 1020.7 1020.6 0.0
 
Date/Time
EST
Temp
°C
App
Temp
°C
Dew
Point
°C
Rel
Hum
%
Delta-T
°C
Wind Press
QNH
hPa
Press
MSL
hPa
Rain since
9am
mm
Dir  Spd
km/h
Gust
km/h
Spd
kts
Gust
kts
26/11:30pm 12.3 10.1 8.0 75 2.1 NNW 9 13 5 7 1020.7 1020.6 0.0
26/11:00pm 12.5 11.3 10.2 86 1.2 NNW 7 9 4 5 1020.9 1020.8 0.0
26/10:30pm 13.0 13.2 10.5 85 1.3 CALM 0 0 0 0 1020.8 1020.7 0.0
26/10:00pm 13.7 12.8 10.6 81 1.6 N 6 6 3 3 1020.8 1020.7 0.0
26/09:30pm 14.6 13.7 10.6 77 2.1 NNW 6 7 3 4 1020.5 1020.4 0.0
26/09:00pm 14.6 12.7 10.4 76 2.2 N 11 13 6 7 1020.4 1020.3 0.0
26/08:30pm 14.2 13.1 10.6 79 1.9 N 7 11 4 6 1020.3 1020.2 0.0
26/08:00pm 15.3 13.2 11.2 76 2.2 N 13 19 7 10 1020.2 1020.1 0.0
26/07:30pm 15.2 13.4 10.9 75 2.3 N 11 15 6 8 1020.3 1020.2 0.0
26/07:00pm 15.2 13.3 11.7 79 1.9 N 13 15 7 8 1020.2 1020.1 0.0
26/06:30pm 15.5 13.7 12.2 81 1.8 NNW 13 17 7 9 1020.0 1019.9 0.0
26/06:00pm 15.1 12.8 11.8 81 1.8 N 15 22 8 12 1019.8 1019.7 0.0
26/05:30pm 15.4 13.5 11.9 79 1.9 NNE 13 15 7 8 1019.6 1019.5 0.0
26/05:00pm 17.4 15.2 10.9 65 3.5 NNE 13 15 7 8 1019.5 1019.4 0.0
26/04:30pm 19.4 17.0 10.0 54 5.0 NNE 13 15 7 8 1019.4 1019.3 0.0
26/04:00pm 20.5 17.2 9.4 49 5.9 NNE 17 20 9 11 1019.3 1019.2 0.0
26/03:30pm 20.9 17.8 9.0 46 6.3 NNE 15 19 8 10 1019.2 1019.1 0.0
26/03:00pm 22.2 18.4 5.6 34 8.3 NNE 15 17 8 9 1019.2 1019.1 0.0
26/02:30pm 22.4 19.1 6.5 35 8.1 NNE 13 17 7 9 1019.2 1019.1 0.0
26/02:00pm 22.4 19.1 6.5 35 8.1 NNE 13 17 7 9 1019.6 1019.5 0.0
26/01:30pm 22.0 18.9 7.2 38 7.6 NNE 13 17 7 9 1019.9 1019.8 0.0
26/01:00pm 21.7 18.8 8.1 41 7.1 NNE 13 17 7 9 1020.2 1020.1 0.0
26/12:30pm 23.1 19.7 4.0 28 9.3 NNE 11 15 6 8 1020.6 1020.5 0.0
26/12:00pm 22.4 19.0 2.1 26 9.5 NNE 9 13 5 7 1021.2 1021.1 0.0
26/11:30am 21.9 18.7 2.9 28 9.0 SW 9 15 5 8 1021.8 1021.7 0.0
26/11:00am 20.8 17.5 2.6 30 8.5 SW 9 15 5 8 1022.4 1022.3 0.0
26/10:30am 20.3 17.3 3.9 34 7.8 WSW 9 13 5 7 1022.7 1022.6 0.0
26/10:00am 18.3 15.2 3.8 38 6.8 WSW 9 11 5 6 1023.0 1022.9 0.0
26/09:30am 16.4 13.3 3.8 43 5.8 SSW 9 13 5 7 1023.2 1023.1 0.0
26/09:00am 13.9 10.6 4.5 53 4.3 SSW 11 13 6 7 1023.2 1023.1 0.0
26/08:30am 11.9 8.7 4.9 62 3.2 SSW 11 13 6 7 1023.2 1023.1 0.0
26/08:00am 10.2 6.1 4.6 68 2.5 SSW 15 17 8 9 1023.1 1023.0 0.0
26/07:30am 8.7 4.6 4.1 73 2.0 SSW 15 19 8 10 1022.9 1022.8 0.0
26/07:00am 6.9 3.0 3.3 78 1.5 SSW 13 13 7 7 1022.8 1022.7 0.0
26/06:30am 6.8 3.7 3.7 80 1.3 SSW 9 13 5 7 1022.6 1022.5 0.0
26/06:00am 6.5 3.0 3.7 82 1.2 SW 11 11 6 6 1022.3 1022.2 0.0
26/05:30am 6.3 3.2 3.7 83 1.1 SSW 9 11 5 6 1022.1 1022.0 0.0
26/05:00am 6.8 4.2 4.2 83 1.1 WSW 7 11 4 6 1022.0 1021.9 0.0
26/04:30am 8.0 6.6 3.5 73 1.9 CALM 0 4 0 2 1021.8 1021.7 0.0
26/04:00am 7.1 3.2 3.6 78 1.5 SW 13 15 7 8 1021.8 1021.7 0.0
26/03:30am 8.2 3.9 3.5 72 2.0 SSW 15 19 8 10 1021.9 1021.8 0.0
26/03:00am 8.7 4.6 4.1 73 2.0 SSW 15 19 8 10 1021.9 1021.8 0.0
26/02:30am 8.5 4.4 4.6 76 1.7 SSW 15 19 8 10 1022.1 1022.0 0.0
26/02:00am 8.7 5.2 5.3 79 1.5 SSW 13 13 7 7 1022.2 1022.1 0.0
26/01:30am 8.7 6.4 5.6 81 1.4 SSW 7 7 4 4 1022.3 1022.2 0.0
26/01:00am 8.9 5.9 5.8 81 1.4 SW 11 13 6 7 1022.4 1022.3 0.0
26/12:30am 9.3 7.0 5.5 77 1.7 SSW 7 7 4 4 1022.4 1022.3 0.0
26/12:00am 10.0 8.2 5.4 73 2.1 W 4 9 2 5 1022.6 1022.5 0.0
 
Date/Time
EST
Temp
°C
App
Temp
°C
Dew
Point
°C
Rel
Hum
%
Delta-T
°C
Wind Press
QNH
hPa
Press
MSL
hPa
Rain since
9am
mm
Dir  Spd
km/h
Gust
km/h
Spd
kts
Gust
kts
25/11:30pm 9.9 7.5 5.2 72 2.1 NW 7 9 4 5 1022.5 1022.4 0.0
25/11:00pm 10.9 8.6 5.9 71 2.3 WSW 7 7 4 4 1022.7 1022.6 0.0
25/10:30pm 11.1 9.4 5.7 69 2.5 WSW 4 7 2 4 1022.8 1022.7 0.0
25/10:00pm 11.1 10.1 5.7 69 2.5 CALM 0 0 0 0 1022.6 1022.5 0.0
25/09:30pm 12.2 11.3 6.2 67 2.8 CALM 0 6 0 3 1022.6 1022.5 0.0
25/09:00pm 13.4 11.2 6.2 61 3.4 WSW 7 13 4 7 1022.5 1022.4 0.0
25/08:30pm 14.0 12.0 7.0 62 3.4 WNW 7 11 4 6 1022.6 1022.5 0.0
25/08:00pm 13.7 12.1 8.9 73 2.4 WNW 7 9 4 5 1022.4 1022.3 0.0
25/07:30pm 13.3 11.3 8.5 72 2.4 NNW 9 11 5 6 1022.2 1022.1 0.0
25/07:00pm 15.6 13.2 7.0 56 4.2 ENE 9 13 5 7 1021.8 1021.7 0.0
25/06:30pm 15.9 13.2 5.4 49 5.0 ENE 9 11 5 6 1021.5 1021.4 0.0
25/06:00pm 15.5 12.7 3.4 44 5.5 ENE 7 9 4 5 1021.3 1021.2 0.0
25/05:30pm 17.5 14.4 3.7 40 6.4 ENE 9 11 5 6 1021.1 1021.0 0.0
25/05:00pm 18.3 15.1 2.9 36 7.1 NE 9 11 5 6 1021.0 1020.9 0.0
25/04:30pm 19.8 16.6 3.1 33 7.8 NE 9 13 5 7 1020.8 1020.7 0.0
25/04:00pm 20.5 16.9 2.7 30 8.3 NNE 11 15 6 8 1020.7 1020.6 0.0
25/03:30pm 21.2 17.0 1.6 27 9.0 NNE 13 17 7 9 1020.7 1020.6 0.0
25/03:00pm 21.4 16.9 2.3 28 8.9 NNE 15 17 8 9 1020.7 1020.6 0.0
25/02:30pm 21.9 17.3 1.5 26 9.4 NE 15 17 8 9 1020.9 1020.8 0.0
25/02:00pm 22.0 17.2 2.7 28 9.1 NNE 17 19 9 10 1021.0 1020.9 0.0
25/01:30pm 22.3 17.0 -0.4 22 10.1 NE 17 20 9 11 1021.3 1021.2 0.0
25/01:00pm 22.0 17.7 -1.4 21 10.2 NE 11 17 6 9 1021.5 1021.4 0.0
25/12:30pm 21.8 18.5 -1.0 22 10.0 SSE 6 11 3 6 1022.0 1021.9 0.0
25/12:00pm 21.4 16.8 -0.7 23 9.7 SSW 13 17 7 9 1022.6 1022.5 0.0
25/11:30am 20.8 15.9 -0.4 24 9.4 SW 15 22 8 12 1023.2 1023.1 0.0
25/11:00am 20.7 15.9 0.2 25 9.1 SW 15 19 8 10 1023.7 1023.6 0.0

Other Formats:

Comma delimited format used in spreadsheet applications
http://www.bom.gov.au/fwo/IDQ60801/IDQ60801.94578.axf

JavaScript Object Notation format (JSON) in row-major order
http://www.bom.gov.au/fwo/IDQ60801/IDQ60801.94578.json